Portada
METAR-TAF:

METAR-TAF

Aeroports :

Novosibirsk, Rússia

latitud: 55-01N, longitud: 082-38E, altitud: 111 m

Observació

L'informe es va fer fa 16 minuts, a les 00:30 UTC
Vent 10 kt del Sud/Sud-Oest
Temperatura -1°C
Humitat 74%
Pressió 1025 hPa
Visibilitat 10 km o més
sense núvols per sota de 1500 mi sense presència de cumulonimbus.

METAR: UNNT 300030Z 20005MPS CAVOK M01/M05 Q1025 R25/150060 R16/090070 NOSIG RMK QFE758/1011

Hora: 07:46 (00:46 UTC)

Pronòstic

L'informe es va fer fa 1 hora i 46 minuts, a les 23:00 UTC
Pronòstic vàlid del 30 a les 00 UTC al 30 a les 24 UTC
Vent 10 kt del Sud/Sud-Oest amb ràfegues de 19 kt
Visibilitat 10 km o més
sense núvols per sota de 1500 mi sense presència de cumulonimbus.
Temporalment
l' 30 a les 05 UTC al 30 a les 10 UTC
Vent 14 kt del Oest/Sud-Oest amb ràfegues de 29 kt

TAF: UNNT 292300Z 3000/3024 20005G10MPS CAVOK TEMPO 3005/3010 24007G15MPS

Observacions i pronòstics meteorològics de més de 4000 aeroports (METAR i TAF).

Les estacions disponibles són els punts grocs i vermells al mapa.

Posi el ratolí al punt desitjat per veure el nom de l'estació.

Feu clic per veure les observacions i els pronòstics meteorològics.

Per canviar el mapa: feu clic els botons verds amb una creu de color negre per apropar; al botó verd amb un guió per allunyar la imatge; o en les fletxes verdes per a mapes adjacents.


METAR-TAF: